sensor_id;sensor_type;location;lat;lon;timestamp;P1;durP1;ratioP1;P2;durP2;ratioP2
20810;SDS011;10566;52.928;10.522;2022-10-13T00:00:26;16.33;;;4.97;;
20810;SDS011;10566;52.928;10.522;2022-10-13T00:02:58;9.93;;;5.17;;
20810;SDS011;10566;52.928;10.522;2022-10-13T00:05:24;14.23;;;5.27;;
20810;SDS011;10566;52.928;10.522;2022-10-13T00:07:50;13.17;;;5.33;;
20810;SDS011;10566;52.928;10.522;2022-10-13T00:10:16;16.27;;;5.10;;
20810;SDS011;10566;52.928;10.522;2022-10-13T00:12:42;14.20;;;5.50;;
20810;SDS011;10566;52.928;10.522;2022-10-13T00:15:09;11.13;;;4.90;;
20810;SDS011;10566;52.928;10.522;2022-10-13T00:17:35;14.73;;;5.53;;
20810;SDS011;10566;52.928;10.522;2022-10-13T00:20:01;16.17;;;5.30;;
20810;SDS011;10566;52.928;10.522;2022-10-13T00:22:28;15.17;;;5.80;;
20810;SDS011;10566;52.928;10.522;2022-10-13T00:24:54;13.53;;;5.20;;
20810;SDS011;10566;52.928;10.522;2022-10-13T00:27:20;12.37;;;5.10;;
20810;SDS011;10566;52.928;10.522;2022-10-13T00:29:46;17.73;;;5.30;;
20810;SDS011;10566;52.928;10.522;2022-10-13T00:32:12;11.87;;;5.20;;
20810;SDS011;10566;52.928;10.522;2022-10-13T00:34:38;12.47;;;5.30;;
20810;SDS011;10566;52.928;10.522;2022-10-13T00:37:04;13.47;;;5.30;;
20810;SDS011;10566;52.928;10.522;2022-10-13T00:39:31;14.57;;;5.30;;
20810;SDS011;10566;52.928;10.522;2022-10-13T00:41:57;13.27;;;5.23;;
20810;SDS011;10566;52.928;10.522;2022-10-13T00:47:08;13.47;;;5.27;;
20810;SDS011;10566;52.928;10.522;2022-10-13T00:49:34;13.63;;;4.63;;
20810;SDS011;10566;52.928;10.522;2022-10-13T00:52:00;11.27;;;4.97;;
20810;SDS011;10566;52.928;10.522;2022-10-13T00:54:27;11.60;;;4.80;;
20810;SDS011;10566;52.928;10.522;2022-10-13T00:56:53;16.60;;;6.10;;
20810;SDS011;10566;52.928;10.522;2022-10-13T00:59:22;12.70;;;5.97;;
20810;SDS011;10566;52.928;10.522;2022-10-13T01:01:51;17.23;;;5.63;;
20810;SDS011;10566;52.928;10.522;2022-10-13T01:04:18;11.23;;;5.40;;
20810;SDS011;10566;52.928;10.522;2022-10-13T01:06:46;14.13;;;5.57;;
20810;SDS011;10566;52.928;10.522;2022-10-13T01:09:12;11.80;;;5.57;;
20810;SDS011;10566;52.928;10.522;2022-10-13T01:14:11;16.80;;;5.50;;
20810;SDS011;10566;52.928;10.522;2022-10-13T01:16:54;13.00;;;5.80;;
20810;SDS011;10566;52.928;10.522;2022-10-13T01:24:35;14.23;;;5.10;;
20810;SDS011;10566;52.928;10.522;2022-10-13T01:27:11;13.20;;;5.70;;
20810;SDS011;10566;52.928;10.522;2022-10-13T01:32:06;12.80;;;6.27;;
20810;SDS011;10566;52.928;10.522;2022-10-13T01:37:20;14.67;;;6.70;;
20810;SDS011;10566;52.928;10.522;2022-10-13T01:39:51;13.27;;;6.37;;
20810;SDS011;10566;52.928;10.522;2022-10-13T01:42:20;15.23;;;5.97;;
20810;SDS011;10566;52.928;10.522;2022-10-13T01:44:48;14.90;;;5.63;;
20810;SDS011;10566;52.928;10.522;2022-10-13T01:47:15;14.43;;;5.53;;
20810;SDS011;10566;52.928;10.522;2022-10-13T01:49:42;13.53;;;5.90;;
20810;SDS011;10566;52.928;10.522;2022-10-13T01:52:11;14.37;;;5.70;;
20810;SDS011;10566;52.928;10.522;2022-10-13T01:54:38;12.00;;;5.43;;
20810;SDS011;10566;52.928;10.522;2022-10-13T01:57:25;14.63;;;5.40;;
20810;SDS011;10566;52.928;10.522;2022-10-13T01:59:50;11.17;;;5.07;;
20810;SDS011;10566;52.928;10.522;2022-10-13T02:07:12;16.03;;;5.43;;
20810;SDS011;10566;52.928;10.522;2022-10-13T02:09:49;15.07;;;5.87;;
20810;SDS011;10566;52.928;10.522;2022-10-13T02:12:38;14.20;;;5.73;;
20810;SDS011;10566;52.928;10.522;2022-10-13T02:15:06;12.60;;;5.13;;
20810;SDS011;10566;52.928;10.522;2022-10-13T02:17:34;10.50;;;4.87;;
20810;SDS011;10566;52.928;10.522;2022-10-13T02:20:00;13.57;;;4.83;;
20810;SDS011;10566;52.928;10.522;2022-10-13T02:22:31;12.90;;;4.93;;
20810;SDS011;10566;52.928;10.522;2022-10-13T02:24:58;12.10;;;5.07;;
20810;SDS011;10566;52.928;10.522;2022-10-13T02:27:24;13.87;;;5.23;;
20810;SDS011;10566;52.928;10.522;2022-10-13T02:29:52;10.80;;;4.97;;
20810;SDS011;10566;52.928;10.522;2022-10-13T02:32:18;14.73;;;5.53;;
20810;SDS011;10566;52.928;10.522;2022-10-13T02:34:44;16.33;;;5.10;;
20810;SDS011;10566;52.928;10.522;2022-10-13T02:37:10;10.97;;;5.40;;
20810;SDS011;10566;52.928;10.522;2022-10-13T02:39:37;12.53;;;5.47;;
20810;SDS011;10566;52.928;10.522;2022-10-13T02:42:03;13.17;;;5.60;;
20810;SDS011;10566;52.928;10.522;2022-10-13T02:44:29;13.60;;;5.30;;
20810;SDS011;10566;52.928;10.522;2022-10-13T02:46:55;14.27;;;5.43;;
20810;SDS011;10566;52.928;10.522;2022-10-13T02:49:21;12.60;;;5.60;;
20810;SDS011;10566;52.928;10.522;2022-10-13T02:51:48;12.80;;;5.97;;
20810;SDS011;10566;52.928;10.522;2022-10-13T02:54:14;13.93;;;6.07;;
20810;SDS011;10566;52.928;10.522;2022-10-13T02:56:40;16.17;;;6.43;;
20810;SDS011;10566;52.928;10.522;2022-10-13T02:59:06;16.23;;;6.10;;
20810;SDS011;10566;52.928;10.522;2022-10-13T03:01:32;18.70;;;6.40;;
20810;SDS011;10566;52.928;10.522;2022-10-13T03:03:59;17.03;;;6.63;;
20810;SDS011;10566;52.928;10.522;2022-10-13T03:06:25;13.97;;;5.73;;
20810;SDS011;10566;52.928;10.522;2022-10-13T03:08:51;14.83;;;6.30;;
20810;SDS011;10566;52.928;10.522;2022-10-13T03:11:17;17.40;;;5.90;;
20810;SDS011;10566;52.928;10.522;2022-10-13T03:13:43;14.20;;;5.47;;
20810;SDS011;10566;52.928;10.522;2022-10-13T03:16:09;13.27;;;5.80;;
20810;SDS011;10566;52.928;10.522;2022-10-13T03:18:35;14.37;;;5.50;;
20810;SDS011;10566;52.928;10.522;2022-10-13T03:21:02;14.40;;;5.83;;
20810;SDS011;10566;52.928;10.522;2022-10-13T03:23:30;11.33;;;5.57;;
20810;SDS011;10566;52.928;10.522;2022-10-13T03:25:57;11.07;;;6.10;;
20810;SDS011;10566;52.928;10.522;2022-10-13T03:28:23;14.53;;;6.00;;
20810;SDS011;10566;52.928;10.522;2022-10-13T03:30:49;12.77;;;5.87;;
20810;SDS011;10566;52.928;10.522;2022-10-13T03:33:15;15.03;;;5.93;;
20810;SDS011;10566;52.928;10.522;2022-10-13T03:35:41;15.87;;;6.43;;
20810;SDS011;10566;52.928;10.522;2022-10-13T03:38:07;13.80;;;6.33;;
20810;SDS011;10566;52.928;10.522;2022-10-13T03:40:36;20.00;;;8.60;;
20810;SDS011;10566;52.928;10.522;2022-10-13T03:43:02;19.43;;;10.37;;
20810;SDS011;10566;52.928;10.522;2022-10-13T03:45:28;23.83;;;12.03;;
20810;SDS011;10566;52.928;10.522;2022-10-13T03:47:55;27.13;;;11.67;;
20810;SDS011;10566;52.928;10.522;2022-10-13T03:50:21;20.47;;;10.33;;
20810;SDS011;10566;52.928;10.522;2022-10-13T03:52:47;24.20;;;11.47;;
20810;SDS011;10566;52.928;10.522;2022-10-13T03:55:13;22.20;;;10.33;;
20810;SDS011;10566;52.928;10.522;2022-10-13T03:57:39;22.90;;;10.50;;
20810;SDS011;10566;52.928;10.522;2022-10-13T04:00:05;20.30;;;9.80;;
20810;SDS011;10566;52.928;10.522;2022-10-13T04:02:34;19.27;;;9.90;;
20810;SDS011;10566;52.928;10.522;2022-10-13T04:05:00;27.27;;;12.57;;
20810;SDS011;10566;52.928;10.522;2022-10-13T04:07:26;27.30;;;13.87;;
20810;SDS011;10566;52.928;10.522;2022-10-13T04:09:52;25.13;;;12.50;;
20810;SDS011;10566;52.928;10.522;2022-10-13T04:12:18;26.73;;;12.60;;
20810;SDS011;10566;52.928;10.522;2022-10-13T04:14:45;23.93;;;11.43;;
20810;SDS011;10566;52.928;10.522;2022-10-13T04:17:11;24.17;;;10.90;;
20810;SDS011;10566;52.928;10.522;2022-10-13T04:19:37;21.27;;;9.30;;
20810;SDS011;10566;52.928;10.522;2022-10-13T04:22:03;18.20;;;9.60;;
20810;SDS011;10566;52.928;10.522;2022-10-13T04:24:29;20.50;;;9.80;;
20810;SDS011;10566;52.928;10.522;2022-10-13T04:26:55;16.20;;;8.80;;
20810;SDS011;10566;52.928;10.522;2022-10-13T04:29:21;14.27;;;7.70;;
20810;SDS011;10566;52.928;10.522;2022-10-13T04:31:47;13.23;;;7.83;;
20810;SDS011;10566;52.928;10.522;2022-10-13T04:34:14;19.07;;;8.27;;
20810;SDS011;10566;52.928;10.522;2022-10-13T04:36:40;14.33;;;8.03;;
20810;SDS011;10566;52.928;10.522;2022-10-13T04:39:06;15.10;;;7.70;;
20810;SDS011;10566;52.928;10.522;2022-10-13T04:41:32;15.80;;;7.73;;
20810;SDS011;10566;52.928;10.522;2022-10-13T04:43:58;14.20;;;7.70;;
20810;SDS011;10566;52.928;10.522;2022-10-13T04:46:26;14.80;;;7.73;;
20810;SDS011;10566;52.928;10.522;2022-10-13T04:48:52;14.00;;;7.37;;
20810;SDS011;10566;52.928;10.522;2022-10-13T04:51:20;14.60;;;7.47;;
20810;SDS011;10566;52.928;10.522;2022-10-13T04:53:46;16.03;;;7.00;;
20810;SDS011;10566;52.928;10.522;2022-10-13T04:56:16;12.40;;;6.53;;
20810;SDS011;10566;52.928;10.522;2022-10-13T04:58:43;15.43;;;6.90;;
20810;SDS011;10566;52.928;10.522;2022-10-13T05:01:13;13.27;;;6.33;;
20810;SDS011;10566;52.928;10.522;2022-10-13T05:03:40;10.87;;;6.27;;
20810;SDS011;10566;52.928;10.522;2022-10-13T05:06:11;12.27;;;6.60;;
20810;SDS011;10566;52.928;10.522;2022-10-13T05:08:38;13.10;;;6.13;;
20810;SDS011;10566;52.928;10.522;2022-10-13T05:11:04;16.40;;;6.20;;
20810;SDS011;10566;52.928;10.522;2022-10-13T05:13:30;12.83;;;6.10;;
20810;SDS011;10566;52.928;10.522;2022-10-13T05:15:56;13.23;;;6.17;;
20810;SDS011;10566;52.928;10.522;2022-10-13T05:18:22;13.20;;;6.20;;
20810;SDS011;10566;52.928;10.522;2022-10-13T05:20:49;11.90;;;6.07;;
20810;SDS011;10566;52.928;10.522;2022-10-13T05:23:15;12.80;;;6.10;;
20810;SDS011;10566;52.928;10.522;2022-10-13T05:25:41;12.47;;;5.70;;
20810;SDS011;10566;52.928;10.522;2022-10-13T05:28:08;15.53;;;6.20;;
20810;SDS011;10566;52.928;10.522;2022-10-13T05:30:34;14.40;;;6.47;;
20810;SDS011;10566;52.928;10.522;2022-10-13T05:33:00;10.70;;;5.80;;
20810;SDS011;10566;52.928;10.522;2022-10-13T05:35:26;15.47;;;6.77;;
20810;SDS011;10566;52.928;10.522;2022-10-13T05:37:53;12.50;;;6.53;;
20810;SDS011;10566;52.928;10.522;2022-10-13T05:40:19;15.17;;;8.27;;
20810;SDS011;10566;52.928;10.522;2022-10-13T05:42:47;15.23;;;7.50;;
20810;SDS011;10566;52.928;10.522;2022-10-13T05:45:13;18.30;;;9.07;;
20810;SDS011;10566;52.928;10.522;2022-10-13T05:47:39;15.63;;;8.40;;
20810;SDS011;10566;52.928;10.522;2022-10-13T05:50:05;15.27;;;8.53;;
20810;SDS011;10566;52.928;10.522;2022-10-13T05:52:32;17.93;;;7.80;;
20810;SDS011;10566;52.928;10.522;2022-10-13T05:54:59;17.43;;;8.43;;
20810;SDS011;10566;52.928;10.522;2022-10-13T05:57:31;20.33;;;10.90;;
20810;SDS011;10566;52.928;10.522;2022-10-13T06:00:08;30.10;;;17.13;;
20810;SDS011;10566;52.928;10.522;2022-10-13T06:02:36;19.77;;;12.67;;
20810;SDS011;10566;52.928;10.522;2022-10-13T06:05:03;21.33;;;11.47;;
20810;SDS011;10566;52.928;10.522;2022-10-13T06:07:30;19.80;;;10.73;;
20810;SDS011;10566;52.928;10.522;2022-10-13T06:09:56;17.47;;;9.67;;
20810;SDS011;10566;52.928;10.522;2022-10-13T06:12:23;17.40;;;9.67;;
20810;SDS011;10566;52.928;10.522;2022-10-13T06:14:49;20.77;;;10.07;;
20810;SDS011;10566;52.928;10.522;2022-10-13T06:17:15;19.90;;;9.73;;
20810;SDS011;10566;52.928;10.522;2022-10-13T06:19:41;15.07;;;8.90;;
20810;SDS011;10566;52.928;10.522;2022-10-13T06:22:09;17.10;;;10.27;;
20810;SDS011;10566;52.928;10.522;2022-10-13T06:24:35;18.50;;;10.23;;
20810;SDS011;10566;52.928;10.522;2022-10-13T06:27:01;20.33;;;9.40;;
20810;SDS011;10566;52.928;10.522;2022-10-13T06:29:27;18.20;;;10.40;;
20810;SDS011;10566;52.928;10.522;2022-10-13T06:31:53;20.50;;;9.77;;
20810;SDS011;10566;52.928;10.522;2022-10-13T06:34:19;22.17;;;10.77;;
20810;SDS011;10566;52.928;10.522;2022-10-13T06:36:45;18.23;;;10.63;;
20810;SDS011;10566;52.928;10.522;2022-10-13T06:39:11;19.83;;;10.33;;
20810;SDS011;10566;52.928;10.522;2022-10-13T06:41:38;26.43;;;10.83;;
20810;SDS011;10566;52.928;10.522;2022-10-13T06:44:04;24.20;;;10.27;;
20810;SDS011;10566;52.928;10.522;2022-10-13T06:46:30;23.80;;;11.37;;
20810;SDS011;10566;52.928;10.522;2022-10-13T06:48:56;22.10;;;11.20;;
20810;SDS011;10566;52.928;10.522;2022-10-13T06:51:23;18.63;;;11.30;;
20810;SDS011;10566;52.928;10.522;2022-10-13T06:53:49;22.73;;;11.73;;
20810;SDS011;10566;52.928;10.522;2022-10-13T06:56:15;24.00;;;11.73;;
20810;SDS011;10566;52.928;10.522;2022-10-13T06:58:41;22.80;;;11.97;;
20810;SDS011;10566;52.928;10.522;2022-10-13T07:01:07;20.93;;;11.47;;
20810;SDS011;10566;52.928;10.522;2022-10-13T07:03:36;20.00;;;10.93;;
20810;SDS011;10566;52.928;10.522;2022-10-13T07:06:03;17.63;;;10.93;;
20810;SDS011;10566;52.928;10.522;2022-10-13T07:08:30;23.10;;;11.27;;
20810;SDS011;10566;52.928;10.522;2022-10-13T07:10:56;22.43;;;11.23;;
20810;SDS011;10566;52.928;10.522;2022-10-13T07:13:22;22.00;;;10.83;;
20810;SDS011;10566;52.928;10.522;2022-10-13T07:15:48;17.70;;;10.27;;
20810;SDS011;10566;52.928;10.522;2022-10-13T07:18:14;19.80;;;11.00;;
20810;SDS011;10566;52.928;10.522;2022-10-13T07:20:40;19.60;;;10.47;;
20810;SDS011;10566;52.928;10.522;2022-10-13T07:23:06;21.47;;;10.57;;
20810;SDS011;10566;52.928;10.522;2022-10-13T07:25:32;20.97;;;10.90;;
20810;SDS011;10566;52.928;10.522;2022-10-13T07:27:58;20.23;;;10.83;;
20810;SDS011;10566;52.928;10.522;2022-10-13T07:30:25;22.03;;;11.50;;
20810;SDS011;10566;52.928;10.522;2022-10-13T07:32:51;23.07;;;12.57;;
20810;SDS011;10566;52.928;10.522;2022-10-13T07:35:17;26.43;;;12.23;;
20810;SDS011;10566;52.928;10.522;2022-10-13T07:37:43;26.70;;;12.63;;
20810;SDS011;10566;52.928;10.522;2022-10-13T07:40:10;23.03;;;12.87;;
20810;SDS011;10566;52.928;10.522;2022-10-13T07:42:36;24.80;;;13.40;;
20810;SDS011;10566;52.928;10.522;2022-10-13T07:45:02;28.17;;;14.20;;
20810;SDS011;10566;52.928;10.522;2022-10-13T07:47:28;23.13;;;12.33;;
20810;SDS011;10566;52.928;10.522;2022-10-13T07:49:54;34.10;;;15.03;;
20810;SDS011;10566;52.928;10.522;2022-10-13T07:52:20;30.67;;;15.40;;
20810;SDS011;10566;52.928;10.522;2022-10-13T07:54:46;33.73;;;18.37;;
20810;SDS011;10566;52.928;10.522;2022-10-13T07:57:12;102.10;;;54.17;;
20810;SDS011;10566;52.928;10.522;2022-10-13T07:59:39;55.10;;;29.27;;
20810;SDS011;10566;52.928;10.522;2022-10-13T08:02:05;40.97;;;21.17;;
20810;SDS011;10566;52.928;10.522;2022-10-13T08:04:32;40.07;;;22.27;;
20810;SDS011;10566;52.928;10.522;2022-10-13T08:06:58;37.77;;;20.00;;
20810;SDS011;10566;52.928;10.522;2022-10-13T08:09:25;81.33;;;48.97;;
20810;SDS011;10566;52.928;10.522;2022-10-13T08:11:51;37.43;;;22.50;;
20810;SDS011;10566;52.928;10.522;2022-10-13T08:14:17;30.60;;;16.50;;
20810;SDS011;10566;52.928;10.522;2022-10-13T08:16:43;31.27;;;14.83;;
20810;SDS011;10566;52.928;10.522;2022-10-13T08:19:14;28.17;;;15.13;;
20810;SDS011;10566;52.928;10.522;2022-10-13T08:21:40;24.90;;;13.17;;
20810;SDS011;10566;52.928;10.522;2022-10-13T08:24:10;29.23;;;13.07;;
20810;SDS011;10566;52.928;10.522;2022-10-13T08:26:37;20.43;;;12.50;;
20810;SDS011;10566;52.928;10.522;2022-10-13T08:29:03;26.60;;;13.30;;
20810;SDS011;10566;52.928;10.522;2022-10-13T08:31:30;29.00;;;18.07;;
20810;SDS011;10566;52.928;10.522;2022-10-13T08:33:56;24.20;;;11.43;;
20810;SDS011;10566;52.928;10.522;2022-10-13T08:36:22;21.10;;;11.70;;
20810;SDS011;10566;52.928;10.522;2022-10-13T08:38:49;26.57;;;16.83;;
20810;SDS011;10566;52.928;10.522;2022-10-13T08:41:17;28.57;;;19.47;;
20810;SDS011;10566;52.928;10.522;2022-10-13T08:43:46;23.70;;;12.10;;
20810;SDS011;10566;52.928;10.522;2022-10-13T08:46:14;18.80;;;10.20;;
20810;SDS011;10566;52.928;10.522;2022-10-13T08:48:41;18.40;;;9.20;;
20810;SDS011;10566;52.928;10.522;2022-10-13T08:51:07;20.13;;;10.17;;
20810;SDS011;10566;52.928;10.522;2022-10-13T08:53:34;21.40;;;9.40;;
20810;SDS011;10566;52.928;10.522;2022-10-13T08:56:08;20.10;;;9.67;;
20810;SDS011;10566;52.928;10.522;2022-10-13T08:58:35;19.37;;;9.90;;
20810;SDS011;10566;52.928;10.522;2022-10-13T09:03:37;20.70;;;8.87;;
20810;SDS011;10566;52.928;10.522;2022-10-13T09:08:51;25.03;;;10.80;;
20810;SDS011;10566;52.928;10.522;2022-10-13T09:11:18;22.63;;;9.93;;
20810;SDS011;10566;52.928;10.522;2022-10-13T09:13:44;22.50;;;9.10;;
20810;SDS011;10566;52.928;10.522;2022-10-13T09:16:11;17.97;;;9.57;;
20810;SDS011;10566;52.928;10.522;2022-10-13T09:18:37;22.00;;;10.47;;
20810;SDS011;10566;52.928;10.522;2022-10-13T09:21:15;18.47;;;9.87;;
20810;SDS011;10566;52.928;10.522;2022-10-13T09:23:43;18.33;;;9.30;;
20810;SDS011;10566;52.928;10.522;2022-10-13T09:26:14;19.10;;;9.53;;
20810;SDS011;10566;52.928;10.522;2022-10-13T09:28:41;22.03;;;9.17;;
20810;SDS011;10566;52.928;10.522;2022-10-13T09:33:43;20.20;;;9.20;;
20810;SDS011;10566;52.928;10.522;2022-10-13T09:36:13;23.70;;;9.73;;
20810;SDS011;10566;52.928;10.522;2022-10-13T09:38:42;17.50;;;8.73;;
20810;SDS011;10566;52.928;10.522;2022-10-13T09:46:01;18.77;;;9.53;;
20810;SDS011;10566;52.928;10.522;2022-10-13T09:48:31;17.97;;;9.47;;
20810;SDS011;10566;52.928;10.522;2022-10-13T09:50:58;16.00;;;8.57;;
20810;SDS011;10566;52.928;10.522;2022-10-13T09:53:32;17.40;;;8.80;;
20810;SDS011;10566;52.928;10.522;2022-10-13T10:01:19;18.33;;;9.27;;
20810;SDS011;10566;52.928;10.522;2022-10-13T10:03:46;18.00;;;9.43;;
20810;SDS011;10566;52.928;10.522;2022-10-13T10:06:13;19.27;;;9.10;;
20810;SDS011;10566;52.928;10.522;2022-10-13T10:11:18;18.13;;;8.87;;
20810;SDS011;10566;52.928;10.522;2022-10-13T10:13:45;15.50;;;8.97;;
20810;SDS011;10566;52.928;10.522;2022-10-13T10:16:13;17.43;;;8.80;;
20810;SDS011;10566;52.928;10.522;2022-10-13T10:19:01;21.63;;;9.17;;
20810;SDS011;10566;52.928;10.522;2022-10-13T10:21:35;16.00;;;8.73;;
20810;SDS011;10566;52.928;10.522;2022-10-13T10:26:46;15.60;;;7.70;;
20810;SDS011;10566;52.928;10.522;2022-10-13T10:39:57;18.65;;;7.90;;
20810;SDS011;10566;52.928;10.522;2022-10-13T10:44:51;19.08;;;7.28;;
20810;SDS011;10566;52.928;10.522;2022-10-13T10:47:19;12.38;;;7.53;;
20810;SDS011;10566;52.928;10.522;2022-10-13T10:49:48;13.02;;;7.90;;
20810;SDS011;10566;52.928;10.522;2022-10-13T10:52:18;19.45;;;8.32;;
20810;SDS011;10566;52.928;10.522;2022-10-13T10:54:47;17.35;;;7.75;;
20810;SDS011;10566;52.928;10.522;2022-10-13T11:04:54;17.13;;;8.15;;
20810;SDS011;10566;52.928;10.522;2022-10-13T11:19:53;16.83;;;7.78;;
20810;SDS011;10566;52.928;10.522;2022-10-13T11:22:20;15.57;;;7.82;;
20810;SDS011;10566;52.928;10.522;2022-10-13T11:24:47;18.40;;;8.55;;
20810;SDS011;10566;52.928;10.522;2022-10-13T11:34:58;18.00;;;8.60;;
20810;SDS011;10566;52.928;10.522;2022-10-13T11:40:00;17.92;;;9.70;;
20810;SDS011;10566;52.928;10.522;2022-10-13T11:42:35;18.33;;;9.40;;
20810;SDS011;10566;52.928;10.522;2022-10-13T11:55:31;16.13;;;7.90;;
20810;SDS011;10566;52.928;10.522;2022-10-13T11:58:08;12.90;;;7.45;;
20810;SDS011;10566;52.928;10.522;2022-10-13T12:00:34;16.77;;;7.65;;
20810;SDS011;10566;52.928;10.522;2022-10-13T12:03:00;13.52;;;7.38;;
20810;SDS011;10566;52.928;10.522;2022-10-13T12:05:27;17.67;;;7.10;;
20810;SDS011;10566;52.928;10.522;2022-10-13T12:07:54;14.60;;;7.55;;
20810;SDS011;10566;52.928;10.522;2022-10-13T12:10:29;16.33;;;7.25;;
20810;SDS011;10566;52.928;10.522;2022-10-13T12:12:55;14.13;;;7.00;;
20810;SDS011;10566;52.928;10.522;2022-10-13T12:17:55;14.55;;;6.65;;
20810;SDS011;10566;52.928;10.522;2022-10-13T12:20:22;13.90;;;6.30;;
20810;SDS011;10566;52.928;10.522;2022-10-13T12:22:49;13.32;;;6.40;;
20810;SDS011;10566;52.928;10.522;2022-10-13T12:25:16;13.35;;;6.78;;
20810;SDS011;10566;52.928;10.522;2022-10-13T12:27:45;14.73;;;6.13;;
20810;SDS011;10566;52.928;10.522;2022-10-13T12:33:25;15.48;;;6.15;;
20810;SDS011;10566;52.928;10.522;2022-10-13T12:35:52;17.60;;;7.00;;
20810;SDS011;10566;52.928;10.522;2022-10-13T12:38:18;17.90;;;6.63;;
20810;SDS011;10566;52.928;10.522;2022-10-13T12:40:48;13.88;;;6.60;;
20810;SDS011;10566;52.928;10.522;2022-10-13T12:43:19;13.60;;;5.47;;
20810;SDS011;10566;52.928;10.522;2022-10-13T12:45:49;14.63;;;5.70;;
20810;SDS011;10566;52.928;10.522;2022-10-13T12:48:32;12.60;;;6.40;;
20810;SDS011;10566;52.928;10.522;2022-10-13T12:53:54;9.55;;;4.93;;
20810;SDS011;10566;52.928;10.522;2022-10-13T12:56:27;13.55;;;5.63;;
20810;SDS011;10566;52.928;10.522;2022-10-13T12:58:53;13.52;;;5.35;;
20810;SDS011;10566;52.928;10.522;2022-10-13T13:01:24;11.50;;;5.30;;
20810;SDS011;10566;52.928;10.522;2022-10-13T13:03:55;11.85;;;5.05;;
20810;SDS011;10566;52.928;10.522;2022-10-13T13:06:32;12.75;;;5.68;;
20810;SDS011;10566;52.928;10.522;2022-10-13T13:09:33;13.55;;;5.30;;
20810;SDS011;10566;52.928;10.522;2022-10-13T13:12:14;15.13;;;5.40;;
20810;SDS011;10566;52.928;10.522;2022-10-13T13:14:43;10.75;;;5.65;;
20810;SDS011;10566;52.928;10.522;2022-10-13T13:17:13;12.25;;;5.00;;
20810;SDS011;10566;52.928;10.522;2022-10-13T13:19:40;12.07;;;4.93;;
20810;SDS011;10566;52.928;10.522;2022-10-13T13:22:06;11.73;;;5.05;;
20810;SDS011;10566;52.928;10.522;2022-10-13T13:24:32;11.07;;;5.15;;
20810;SDS011;10566;52.928;10.522;2022-10-13T13:27:00;12.73;;;4.63;;
20810;SDS011;10566;52.928;10.522;2022-10-13T13:29:26;12.80;;;5.20;;
20810;SDS011;10566;52.928;10.522;2022-10-13T13:31:52;11.73;;;5.22;;
20810;SDS011;10566;52.928;10.522;2022-10-13T13:34:18;11.15;;;5.95;;
20810;SDS011;10566;52.928;10.522;2022-10-13T13:36:44;14.43;;;5.78;;
20810;SDS011;10566;52.928;10.522;2022-10-13T13:39:13;12.98;;;5.18;;
20810;SDS011;10566;52.928;10.522;2022-10-13T13:41:42;12.68;;;5.60;;
20810;SDS011;10566;52.928;10.522;2022-10-13T13:44:09;10.80;;;4.90;;
20810;SDS011;10566;52.928;10.522;2022-10-13T13:46:35;13.48;;;5.35;;
20810;SDS011;10566;52.928;10.522;2022-10-13T13:49:01;8.98;;;4.40;;
20810;SDS011;10566;52.928;10.522;2022-10-13T13:51:27;12.85;;;5.47;;
20810;SDS011;10566;52.928;10.522;2022-10-13T13:53:53;10.73;;;5.10;;
20810;SDS011;10566;52.928;10.522;2022-10-13T13:56:20;11.98;;;4.70;;
20810;SDS011;10566;52.928;10.522;2022-10-13T13:58:46;11.30;;;4.43;;
20810;SDS011;10566;52.928;10.522;2022-10-13T14:01:12;11.15;;;4.50;;
20810;SDS011;10566;52.928;10.522;2022-10-13T14:03:39;8.55;;;4.10;;
20810;SDS011;10566;52.928;10.522;2022-10-13T14:06:05;13.82;;;4.22;;
20810;SDS011;10566;52.928;10.522;2022-10-13T14:08:32;11.73;;;4.28;;
20810;SDS011;10566;52.928;10.522;2022-10-13T14:10:59;10.63;;;4.70;;
20810;SDS011;10566;52.928;10.522;2022-10-13T14:13:25;10.10;;;4.45;;
20810;SDS011;10566;52.928;10.522;2022-10-13T14:15:57;8.65;;;4.00;;
20810;SDS011;10566;52.928;10.522;2022-10-13T14:18:24;11.40;;;4.55;;
20810;SDS011;10566;52.928;10.522;2022-10-13T14:20:50;12.05;;;4.32;;
20810;SDS011;10566;52.928;10.522;2022-10-13T14:23:16;11.18;;;4.38;;
20810;SDS011;10566;52.928;10.522;2022-10-13T14:25:42;8.73;;;4.43;;
20810;SDS011;10566;52.928;10.522;2022-10-13T14:28:08;11.02;;;4.57;;
20810;SDS011;10566;52.928;10.522;2022-10-13T14:30:37;25.20;;;12.45;;
20810;SDS011;10566;52.928;10.522;2022-10-13T14:33:04;11.07;;;4.45;;
20810;SDS011;10566;52.928;10.522;2022-10-13T14:35:30;12.30;;;4.55;;
20810;SDS011;10566;52.928;10.522;2022-10-13T14:37:56;9.25;;;4.60;;
20810;SDS011;10566;52.928;10.522;2022-10-13T14:40:22;13.00;;;5.28;;
20810;SDS011;10566;52.928;10.522;2022-10-13T14:42:48;13.32;;;5.07;;
20810;SDS011;10566;52.928;10.522;2022-10-13T14:45:14;12.63;;;4.57;;
20810;SDS011;10566;52.928;10.522;2022-10-13T14:47:40;13.60;;;5.03;;
20810;SDS011;10566;52.928;10.522;2022-10-13T14:50:07;9.85;;;4.30;;
20810;SDS011;10566;52.928;10.522;2022-10-13T14:52:33;13.70;;;5.13;;
20810;SDS011;10566;52.928;10.522;2022-10-13T14:54:59;10.45;;;4.25;;
20810;SDS011;10566;52.928;10.522;2022-10-13T14:57:25;11.30;;;4.22;;
20810;SDS011;10566;52.928;10.522;2022-10-13T14:59:51;12.95;;;6.35;;
20810;SDS011;10566;52.928;10.522;2022-10-13T15:02:17;15.18;;;6.47;;
20810;SDS011;10566;52.928;10.522;2022-10-13T15:04:43;9.18;;;4.50;;
20810;SDS011;10566;52.928;10.522;2022-10-13T15:07:09;12.73;;;4.57;;
20810;SDS011;10566;52.928;10.522;2022-10-13T15:09:37;9.85;;;4.60;;
20810;SDS011;10566;52.928;10.522;2022-10-13T15:12:05;12.23;;;4.20;;
20810;SDS011;10566;52.928;10.522;2022-10-13T15:14:31;9.60;;;4.22;;
20810;SDS011;10566;52.928;10.522;2022-10-13T15:16:57;9.77;;;4.40;;
20810;SDS011;10566;52.928;10.522;2022-10-13T15:19:23;12.50;;;4.70;;
20810;SDS011;10566;52.928;10.522;2022-10-13T15:21:49;11.23;;;4.45;;
20810;SDS011;10566;52.928;10.522;2022-10-13T15:24:16;10.07;;;4.45;;
20810;SDS011;10566;52.928;10.522;2022-10-13T15:26:42;8.82;;;4.43;;
20810;SDS011;10566;52.928;10.522;2022-10-13T15:29:08;11.52;;;4.20;;
20810;SDS011;10566;52.928;10.522;2022-10-13T15:31:34;12.75;;;4.30;;
20810;SDS011;10566;52.928;10.522;2022-10-13T15:34:00;11.38;;;4.30;;
20810;SDS011;10566;52.928;10.522;2022-10-13T15:36:26;10.77;;;4.03;;
20810;SDS011;10566;52.928;10.522;2022-10-13T15:38:52;10.85;;;4.22;;
20810;SDS011;10566;52.928;10.522;2022-10-13T15:41:21;11.38;;;4.28;;
20810;SDS011;10566;52.928;10.522;2022-10-13T15:43:48;8.15;;;4.13;;
20810;SDS011;10566;52.928;10.522;2022-10-13T15:46:14;10.27;;;4.10;;
20810;SDS011;10566;52.928;10.522;2022-10-13T15:48:48;9.65;;;4.32;;
20810;SDS011;10566;52.928;10.522;2022-10-13T15:51:16;8.68;;;4.10;;
20810;SDS011;10566;52.928;10.522;2022-10-13T15:53:43;11.38;;;4.43;;
20810;SDS011;10566;52.928;10.522;2022-10-13T15:56:09;10.77;;;4.53;;
20810;SDS011;10566;52.928;10.522;2022-10-13T15:58:35;9.60;;;4.30;;
20810;SDS011;10566;52.928;10.522;2022-10-13T16:01:05;10.52;;;4.10;;
20810;SDS011;10566;52.928;10.522;2022-10-13T16:03:32;11.57;;;4.80;;
20810;SDS011;10566;52.928;10.522;2022-10-13T16:05:58;10.23;;;5.20;;